Time;durP1;ratioP1;P1;durP2;ratioP2;P2;SDS_P1;SDS_P2;PMS_P1;PMS_P2;Temp;Humidity;BMP_temperature;BMP_pressure;BME280_temperature;BME280_humidity;BME280_pressure;Samples;Min_cycle;Max_cycle;Signal;HPM_P1;HPM_P2
2022/07/16 00:02:27;;;;;;;4.15;1.17;;;13.80;99.90;;;;;;4359943;28;10000538;-73
2022/07/16 00:04:52;;;;;;;2.92;1.20;;;13.70;99.90;;;;;;5048462;28;20439;-73
2022/07/16 00:07:19;;;;;;;5.60;1.25;;;13.70;99.90;;;;;;5046810;28;20392;-73
2022/07/16 00:09:45;;;;;;;6.63;1.50;;;13.60;99.90;;;;;;5059524;28;20043;-73
2022/07/16 00:12:10;;;;;;;3.63;1.33;;;13.60;99.90;;;;;;5072477;28;20672;-73
2022/07/16 00:14:36;;;;;;;4.32;1.30;;;13.60;99.90;;;;;;5057531;28;20113;-73
2022/07/16 00:17:02;;;;;;;6.18;1.30;;;13.60;99.90;;;;;;5065767;28;20020;-73
2022/07/16 00:19:28;;;;;;;2.78;1.20;;;13.50;99.90;;;;;;5044299;28;20110;-73
2022/07/16 00:21:55;;;;;;;2.65;1.10;;;13.40;99.90;;;;;;5065615;28;20052;-73
2022/07/16 00:24:22;;;;;;;3.15;1.27;;;13.40;99.90;;;;;;5061094;28;20047;-73
2022/07/16 00:26:47;;;;;;;3.03;1.17;;;13.30;99.90;;;;;;5052657;28;20540;-72
2022/07/16 00:29:15;;;;;;;2.85;1.05;;;13.30;99.90;;;;;;5060648;28;20032;-72
2022/07/16 00:31:42;;;;;;;3.05;1.00;;;13.30;99.90;;;;;;5057964;28;20035;-72
2022/07/16 00:34:08;;;;;;;2.88;1.13;;;13.20;99.90;;;;;;5060987;28;20301;-73
2022/07/16 00:36:36;;;;;;;4.38;1.40;;;13.20;99.90;;;;;;5063864;28;20408;-73
2022/07/16 00:39:02;;;;;;;2.75;1.55;;;13.20;99.90;;;;;;5052077;28;20032;-72
2022/07/16 00:41:28;;;;;;;1.90;0.98;;;13.10;99.90;;;;;;5055362;28;20246;-73
2022/07/16 00:44:00;;;;;;;1.45;0.95;;;13.10;99.90;;;;;;5063269;28;20020;-73
2022/07/16 00:46:26;;;;;;;3.00;1.13;;;13.00;99.90;;;;;;5050350;28;20052;-73
2022/07/16 00:48:52;;;;;;;1.63;1.08;;;13.00;99.90;;;;;;5052653;28;20600;-73
2022/07/16 00:51:18;;;;;;;3.22;1.35;;;13.00;99.90;;;;;;5051031;28;20095;-73
2022/07/16 00:53:44;;;;;;;3.00;1.17;;;13.00;99.90;;;;;;5067886;28;20039;-73
2022/07/16 00:56:12;;;;;;;2.25;1.08;;;13.00;99.90;;;;;;5060850;28;20348;-73
2022/07/16 00:58:39;;;;;;;3.85;0.98;;;12.90;99.90;;;;;;5052190;28;20035;-73
2022/07/16 01:01:06;;;;;;;2.72;1.00;;;12.90;99.90;;;;;;5062295;28;20360;-72
2022/07/16 01:03:32;;;;;;;3.55;1.20;;;12.90;99.90;;;;;;5047284;28;20563;-73
2022/07/16 01:05:58;;;;;;;3.42;1.20;;;12.90;99.90;;;;;;5051067;28;20037;-72
2022/07/16 01:08:24;;;;;;;5.18;1.40;;;12.90;99.90;;;;;;5052816;28;20089;-72
2022/07/16 01:10:50;;;;;;;7.38;1.15;;;12.90;99.90;;;;;;5050743;28;20034;-72
2022/07/16 01:13:17;;;;;;;1.90;1.10;;;12.90;99.90;;;;;;5060521;28;20041;-72
2022/07/16 01:15:43;;;;;;;4.07;1.08;;;12.90;99.90;;;;;;5057440;28;20073;-72
2022/07/16 01:18:09;;;;;;;4.20;0.90;;;12.80;99.90;;;;;;5058113;28;20107;-72
2022/07/16 01:20:34;;;;;;;2.08;0.95;;;12.70;99.90;;;;;;5054483;28;20303;-72
2022/07/16 01:23:01;;;;;;;1.50;0.88;;;12.70;99.90;;;;;;5063267;28;20536;-72
2022/07/16 01:25:27;;;;;;;2.53;1.15;;;12.70;99.90;;;;;;5064514;28;20033;-72
2022/07/16 01:27:52;;;;;;;3.15;1.13;;;12.60;99.90;;;;;;5061271;28;20112;-72
2022/07/16 01:30:18;;;;;;;4.00;1.17;;;12.60;99.90;;;;;;5061761;28;20115;-72
2022/07/16 01:32:44;;;;;;;2.30;1.13;;;12.70;99.90;;;;;;5052209;28;20382;-72
2022/07/16 01:35:10;;;;;;;2.92;1.10;;;12.70;99.90;;;;;;5064623;28;20028;-72
2022/07/16 01:37:36;;;;;;;4.95;1.30;;;12.60;99.90;;;;;;5050962;28;20732;-72
2022/07/16 01:40:03;;;;;;;5.88;1.38;;;12.60;99.90;;;;;;5046447;28;20031;-73
2022/07/16 01:42:29;;;;;;;2.90;1.23;;;12.60;99.90;;;;;;5065472;28;20110;-72
2022/07/16 01:44:55;;;;;;;1.58;1.13;;;12.60;99.90;;;;;;5063499;28;20460;-72
2022/07/16 01:47:20;;;;;;;2.83;1.35;;;12.60;99.90;;;;;;5065851;28;21254;-73
2022/07/16 01:49:46;;;;;;;4.88;1.40;;;12.60;99.90;;;;;;5057872;28;20032;-72
2022/07/16 01:52:14;;;;;;;2.05;1.23;;;12.60;99.90;;;;;;5069771;28;20039;-73
2022/07/16 01:54:43;;;;;;;4.82;1.30;;;12.60;99.90;;;;;;5071002;28;20020;-73
2022/07/16 01:57:09;;;;;;;3.85;1.30;;;12.60;99.90;;;;;;5065880;28;20052;-72
2022/07/16 01:59:34;;;;;;;5.55;1.50;;;12.60;99.90;;;;;;5043506;28;20033;-72
2022/07/16 02:02:00;;;;;;;6.15;1.88;;;12.60;99.90;;;;;;5071943;28;20039;-72
2022/07/16 02:04:25;;;;;;;2.45;1.30;;;12.60;99.90;;;;;;5050379;28;20017;-73
2022/07/16 02:06:51;;;;;;;8.10;1.45;;;12.60;99.90;;;;;;5061695;28;20119;-73
2022/07/16 02:09:17;;;;;;;4.57;1.33;;;12.60;99.90;;;;;;5062320;28;20071;-72
2022/07/16 02:11:42;;;;;;;3.72;1.30;;;12.70;99.90;;;;;;5055056;28;20029;-73
2022/07/16 02:14:08;;;;;;;4.70;1.30;;;12.60;99.90;;;;;;5051084;28;20497;-73
2022/07/16 02:16:34;;;;;;;3.75;1.30;;;12.60;99.90;;;;;;5068339;28;20299;-72
2022/07/16 02:18:59;;;;;;;3.17;1.20;;;12.60;99.90;;;;;;5034556;28;20182;-72
2022/07/16 02:21:25;;;;;;;2.47;1.40;;;12.60;99.90;;;;;;5070492;28;20037;-72
2022/07/16 02:23:50;;;;;;;3.78;1.23;;;12.60;99.90;;;;;;5050269;28;20040;-72
2022/07/16 02:26:16;;;;;;;2.08;1.23;;;12.60;99.90;;;;;;5071737;28;20120;-72
2022/07/16 02:28:41;;;;;;;1.83;1.33;;;12.50;99.90;;;;;;5050394;28;20016;-72
2022/07/16 02:31:07;;;;;;;3.58;1.30;;;12.50;99.90;;;;;;5084093;28;20563;-72
2022/07/16 02:33:33;;;;;;;2.67;1.50;;;12.50;99.90;;;;;;5049961;28;20362;-72
2022/07/16 02:35:58;;;;;;;2.67;1.20;;;12.50;99.90;;;;;;5061266;28;20049;-72
2022/07/16 02:38:24;;;;;;;3.47;1.23;;;12.50;99.90;;;;;;5065725;28;20070;-72
2022/07/16 02:40:49;;;;;;;2.45;1.30;;;12.50;99.90;;;;;;5069957;28;20063;-73
2022/07/16 02:43:15;;;;;;;2.83;1.40;;;12.40;99.90;;;;;;5063457;28;20013;-72
2022/07/16 02:45:42;;;;;;;1.45;1.25;;;12.40;99.90;;;;;;5065589;28;20334;-72
2022/07/16 02:48:10;;;;;;;2.50;1.30;;;12.40;99.90;;;;;;5070498;28;20695;-71
2022/07/16 02:50:35;;;;;;;3.95;1.40;;;12.40;99.90;;;;;;5060177;28;20029;-72
2022/07/16 02:53:01;;;;;;;2.30;1.17;;;12.40;99.90;;;;;;5042389;28;20047;-72
2022/07/16 02:55:27;;;;;;;3.10;1.20;;;12.30;99.90;;;;;;5056297;28;20032;-72
2022/07/16 02:57:52;;;;;;;2.45;1.27;;;12.30;99.90;;;;;;5071033;28;20059;-72
2022/07/16 03:00:18;;;;;;;3.95;1.42;;;12.30;99.90;;;;;;5067604;28;20028;-72
2022/07/16 03:02:44;;;;;;;2.67;1.27;;;12.30;99.90;;;;;;5052069;28;20440;-72
2022/07/16 03:05:11;;;;;;;1.95;1.02;;;12.30;99.90;;;;;;5058972;28;20421;-73
2022/07/16 03:07:37;;;;;;;1.98;1.17;;;12.30;99.90;;;;;;5061980;28;20449;-72
2022/07/16 03:10:06;;;;;;;2.67;1.20;;;12.30;99.90;;;;;;5070337;28;20052;-72
2022/07/16 03:12:31;;;;;;;3.45;1.10;;;12.30;99.90;;;;;;5057745;28;20034;-72
2022/07/16 03:14:58;;;;;;;3.45;1.10;;;12.30;99.90;;;;;;5061906;28;20446;-72
2022/07/16 03:17:23;;;;;;;2.38;1.20;;;12.30;99.90;;;;;;5067966;28;20036;-72
2022/07/16 03:19:49;;;;;;;3.92;1.17;;;12.30;99.90;;;;;;5055965;28;20082;-72
2022/07/16 03:22:16;;;;;;;3.85;1.10;;;12.30;99.90;;;;;;5055599;28;20111;-72
2022/07/16 03:24:42;;;;;;;2.00;1.15;;;12.30;99.90;;;;;;5048523;28;20024;-72
2022/07/16 03:27:07;;;;;;;2.05;1.02;;;12.40;99.90;;;;;;5075602;28;20028;-73
2022/07/16 03:29:33;;;;;;;2.67;1.13;;;12.40;99.90;;;;;;5047321;28;20055;-73
2022/07/16 03:31:59;;;;;;;2.35;1.23;;;12.40;99.90;;;;;;5058053;28;20488;-73
2022/07/16 03:34:24;;;;;;;2.65;1.20;;;12.40;99.90;;;;;;5060119;28;20110;-72
2022/07/16 03:36:50;;;;;;;2.75;1.30;;;12.40;99.90;;;;;;5061176;28;20045;-72
2022/07/16 03:39:15;;;;;;;3.22;1.27;;;12.30;99.90;;;;;;5061943;28;20033;-72
2022/07/16 03:41:41;;;;;;;1.40;1.17;;;12.30;99.90;;;;;;5054898;28;20036;-72
2022/07/16 03:44:09;;;;;;;2.25;1.40;;;12.30;99.90;;;;;;5082678;28;20032;-72
2022/07/16 03:46:35;;;;;;;5.13;1.20;;;12.30;99.90;;;;;;5054149;28;20032;-72
2022/07/16 03:49:02;;;;;;;2.60;1.10;;;12.30;99.90;;;;;;5055377;28;20027;-72
2022/07/16 03:51:28;;;;;;;2.75;1.20;;;12.30;99.90;;;;;;5076161;28;20036;-72
2022/07/16 03:53:53;;;;;;;4.82;1.45;;;12.30;99.90;;;;;;5066995;28;20420;-72
2022/07/16 03:56:19;;;;;;;6.35;1.48;;;12.40;99.90;;;;;;5052289;28;20025;-72
2022/07/16 03:58:45;;;;;;;3.33;1.40;;;12.40;99.90;;;;;;5058329;28;20062;-72
2022/07/16 04:01:11;;;;;;;2.50;1.48;;;12.40;99.90;;;;;;5062121;28;20607;-72
2022/07/16 04:03:37;;;;;;;3.72;1.40;;;12.40;99.90;;;;;;5067896;28;20028;-72
2022/07/16 04:06:03;;;;;;;5.43;1.50;;;12.40;99.90;;;;;;5063700;28;20099;-72
2022/07/16 04:08:29;;;;;;;3.35;1.58;;;12.50;99.90;;;;;;5062249;28;20097;-72
2022/07/16 04:10:55;;;;;;;3.80;1.45;;;12.50;99.90;;;;;;5053040;28;20479;-72
2022/07/16 04:13:21;;;;;;;4.35;1.50;;;12.50;99.90;;;;;;5050957;28;20060;-72
2022/07/16 04:15:47;;;;;;;2.30;1.27;;;12.50;99.90;;;;;;5054839;28;20024;-72
2022/07/16 04:18:13;;;;;;;5.32;1.30;;;12.50;99.90;;;;;;5070253;28;20147;-72
2022/07/16 04:20:39;;;;;;;4.15;1.65;;;12.50;99.90;;;;;;5044226;28;20066;-73
2022/07/16 04:23:05;;;;;;;2.20;1.23;;;12.50;99.90;;;;;;5051579;28;20036;-72
2022/07/16 04:25:30;;;;;;;3.53;1.40;;;12.50;99.90;;;;;;5054902;28;20032;-72
2022/07/16 04:27:56;;;;;;;3.13;1.50;;;12.50;99.90;;;;;;5060608;28;20025;-72
2022/07/16 04:30:22;;;;;;;3.88;1.70;;;12.50;99.90;;;;;;5056543;28;20017;-72
2022/07/16 04:32:48;;;;;;;4.28;1.60;;;12.50;99.90;;;;;;5060667;28;20021;-72
2022/07/16 04:35:14;;;;;;;9.23;1.85;;;12.50;99.90;;;;;;5060288;28;20126;-72
2022/07/16 04:37:41;;;;;;;2.90;1.65;;;12.50;99.90;;;;;;5061736;28;20040;-72
2022/07/16 04:40:08;;;;;;;4.72;1.70;;;12.50;99.90;;;;;;5059337;28;20036;-72
2022/07/16 04:42:37;;;;;;;4.10;1.73;;;12.60;99.90;;;;;;5059767;28;20627;-72
2022/07/16 04:45:03;;;;;;;2.90;1.80;;;12.60;99.90;;;;;;5080148;28;20471;-72
2022/07/16 04:47:28;;;;;;;4.15;1.73;;;12.60;99.90;;;;;;5064627;28;20154;-73
2022/07/16 04:49:54;;;;;;;5.57;1.75;;;12.70;99.90;;;;;;5065805;28;20107;-72
2022/07/16 04:52:19;;;;;;;6.05;2.00;;;12.80;99.90;;;;;;5066781;28;20024;-72
2022/07/16 04:54:45;;;;;;;2.72;1.58;;;12.90;99.90;;;;;;5046813;28;20033;-72
2022/07/16 04:57:11;;;;;;;5.25;1.67;;;12.90;99.90;;;;;;5057011;28;21366;-72
2022/07/16 04:59:36;;;;;;;3.90;1.83;;;13.00;99.90;;;;;;5073879;28;20111;-72
2022/07/16 05:04:46;;;;;;;2.58;2.05;;;13.00;99.90;;;;;;5047098;28;20404;-72
2022/07/16 05:07:12;;;;;;;3.05;1.92;;;13.10;99.90;;;;;;5054354;28;20026;-72
2022/07/16 05:09:37;;;;;;;5.18;1.90;;;13.10;99.90;;;;;;5043875;28;20078;-72
2022/07/16 05:12:03;;;;;;;6.35;2.22;;;13.10;99.90;;;;;;5052489;28;20038;-72
2022/07/16 05:14:29;;;;;;;5.07;1.85;;;13.10;99.90;;;;;;5050886;28;20462;-72
2022/07/16 05:16:56;;;;;;;7.88;1.85;;;13.10;99.90;;;;;;5063678;28;20059;-72
2022/07/16 05:19:22;;;;;;;5.30;1.77;;;13.10;99.90;;;;;;5045974;28;20043;-72
2022/07/16 05:21:48;;;;;;;3.90;1.92;;;13.10;99.90;;;;;;5058602;28;20017;-72
2022/07/16 05:24:13;;;;;;;4.18;1.77;;;13.00;99.90;;;;;;5057332;28;20024;-72
2022/07/16 05:26:39;;;;;;;3.50;1.60;;;13.10;99.90;;;;;;5053965;28;20427;-72
2022/07/16 05:29:04;;;;;;;5.78;1.77;;;13.10;99.90;;;;;;5053344;28;20029;-73
2022/07/16 05:31:30;;;;;;;3.13;1.70;;;13.20;99.90;;;;;;5061155;28;20395;-72
2022/07/16 05:33:55;;;;;;;5.03;1.95;;;13.20;99.90;;;;;;5057891;28;20060;-72
2022/07/16 05:36:21;;;;;;;5.28;2.20;;;13.30;99.90;;;;;;5059339;28;20063;-72
2022/07/16 05:38:47;;;;;;;4.20;2.00;;;13.30;99.90;;;;;;5056112;28;20036;-72
2022/07/16 05:41:12;;;;;;;6.72;2.30;;;13.40;99.90;;;;;;5054901;28;20059;-73
2022/07/16 05:43:38;;;;;;;3.55;1.98;;;13.60;99.90;;;;;;5046769;28;20055;-74
2022/07/16 05:46:03;;;;;;;4.22;2.08;;;13.60;99.90;;;;;;5041664;28;20033;-75
2022/07/16 05:48:29;;;;;;;4.57;1.92;;;13.70;99.90;;;;;;5050001;28;20098;-74
2022/07/16 05:50:55;;;;;;;4.15;1.73;;;13.70;99.90;;;;;;5048841;28;20112;-74
2022/07/16 05:53:21;;;;;;;5.95;2.00;;;13.80;99.90;;;;;;5049688;28;20465;-74
2022/07/16 05:55:46;;;;;;;6.93;1.80;;;13.80;99.90;;;;;;5050303;28;20116;-74
2022/07/16 05:58:12;;;;;;;5.63;2.10;;;13.90;99.90;;;;;;5047748;28;20036;-74
2022/07/16 06:00:38;;;;;;;4.07;1.98;;;13.90;99.90;;;;;;5058738;28;20021;-74
2022/07/16 06:03:04;;;;;;;3.05;1.85;;;14.00;99.90;;;;;;5052207;28;20060;-74
2022/07/16 06:05:29;;;;;;;3.75;1.95;;;14.00;99.90;;;;;;5049716;28;20017;-74
2022/07/16 06:07:55;;;;;;;3.63;2.17;;;14.00;99.90;;;;;;5049489;28;20025;-74
2022/07/16 06:10:20;;;;;;;5.07;2.22;;;14.10;99.90;;;;;;5063505;28;20115;-74
2022/07/16 06:12:46;;;;;;;2.83;1.85;;;14.10;99.90;;;;;;5075529;28;20028;-74
2022/07/16 06:15:13;;;;;;;5.78;1.75;;;14.10;99.90;;;;;;5058443;28;20025;-74
2022/07/16 06:17:39;;;;;;;3.58;2.17;;;14.20;99.90;;;;;;5050138;28;20093;-74
2022/07/16 06:20:06;;;;;;;5.57;1.90;;;14.30;99.90;;;;;;5047131;28;20028;-74
2022/07/16 06:22:32;;;;;;;3.60;1.83;;;14.40;99.90;;;;;;5050150;28;20379;-74
2022/07/16 06:24:58;;;;;;;4.97;2.03;;;14.40;99.90;;;;;;5049215;28;20036;-74
2022/07/16 06:27:24;;;;;;;7.40;2.17;;;14.60;99.90;;;;;;5050918;28;20024;-74
2022/07/16 06:29:49;;;;;;;4.32;1.85;;;14.70;99.90;;;;;;5058014;28;20060;-74
2022/07/16 06:32:15;;;;;;;3.63;2.00;;;14.80;99.90;;;;;;5066467;28;20040;-74
2022/07/16 06:34:40;;;;;;;3.83;1.70;;;14.80;99.90;;;;;;5060582;28;20067;-74
2022/07/16 06:37:06;;;;;;;5.20;1.83;;;14.90;99.90;;;;;;5048013;28;20043;-74
2022/07/16 06:39:32;;;;;;;3.65;2.00;;;15.00;99.90;;;;;;5047002;28;20635;-74
2022/07/16 06:41:58;;;;;;;4.00;1.80;;;15.10;99.90;;;;;;5048129;28;20025;-76
2022/07/16 06:44:24;;;;;;;6.57;1.75;;;15.40;99.90;;;;;;5064899;28;20035;-74
2022/07/16 06:46:50;;;;;;;6.05;2.30;;;15.70;99.90;;;;;;5062322;28;20373;-75
2022/07/16 06:49:15;;;;;;;5.35;1.63;;;16.10;99.90;;;;;;5058672;28;20029;-75
2022/07/16 06:51:41;;;;;;;3.63;1.77;;;16.50;99.90;;;;;;5061790;28;20033;-75
2022/07/16 06:54:07;;;;;;;4.85;2.10;;;17.00;99.90;;;;;;5050258;28;20017;-75
2022/07/16 06:56:32;;;;;;;3.53;1.83;;;17.40;99.90;;;;;;5062328;28;20494;-75
2022/07/16 06:58:58;;;;;;;3.17;1.60;;;17.70;99.90;;;;;;5064621;28;20495;-76
2022/07/16 07:01:23;;;;;;;4.75;1.90;;;17.90;99.90;;;;;;5069140;28;20089;-76
2022/07/16 07:03:50;;;;;;;4.93;1.70;;;18.00;99.90;;;;;;5061303;28;20029;-76
2022/07/16 07:06:15;;;;;;;5.68;1.85;;;18.30;99.90;;;;;;5052686;28;20027;-74
2022/07/16 07:08:41;;;;;;;4.88;1.73;;;18.70;99.90;;;;;;5046776;28;20028;-72
2022/07/16 07:11:07;;;;;;;4.25;1.70;;;19.00;99.90;;;;;;5054815;28;20451;-73
2022/07/16 07:13:33;;;;;;;3.72;1.92;;;19.20;99.90;;;;;;5048937;28;20056;-75
2022/07/16 07:15:59;;;;;;;5.07;1.83;;;19.40;99.90;;;;;;5066615;28;20029;-75
2022/07/16 07:18:25;;;;;;;2.42;1.60;;;19.40;99.90;;;;;;5061507;28;20042;-76
2022/07/16 07:20:51;;;;;;;3.03;1.52;;;19.40;99.90;;;;;;5062868;28;20042;-76
2022/07/16 07:23:16;;;;;;;4.85;1.80;;;19.40;99.90;;;;;;5053072;28;20198;-75
2022/07/16 07:25:42;;;;;;;2.65;1.60;;;19.40;99.90;;;;;;5059461;28;20524;-75
2022/07/16 07:28:07;;;;;;;3.55;1.30;;;19.30;99.90;;;;;;5048069;28;20025;-75
2022/07/16 07:30:33;;;;;;;4.15;1.52;;;19.30;99.90;;;;;;5054058;28;20102;-75
2022/07/16 07:33:00;;;;;;;4.03;1.55;;;19.30;99.90;;;;;;5049807;28;20031;-75
2022/07/16 07:35:26;;;;;;;4.03;1.42;;;19.50;99.90;;;;;;5054312;28;20086;-75
2022/07/16 07:37:52;;;;;;;3.70;1.33;;;19.80;99.90;;;;;;5067039;28;20216;-75
2022/07/16 07:40:18;;;;;;;4.05;1.50;;;20.20;99.90;;;;;;5051937;28;20328;-75
2022/07/16 07:42:44;;;;;;;2.55;1.30;;;20.50;99.00;;;;;;5054655;28;20317;-75
2022/07/16 07:45:10;;;;;;;4.25;1.50;;;20.70;98.20;;;;;;5074854;28;20445;-75
2022/07/16 07:47:37;;;;;;;2.28;1.40;;;21.00;97.20;;;;;;5062329;28;20029;-75
2022/07/16 07:50:04;;;;;;;4.90;1.65;;;21.00;96.50;;;;;;5060330;28;20085;-75
2022/07/16 07:52:30;;;;;;;4.88;1.70;;;21.10;95.80;;;;;;5065747;28;20052;-75
2022/07/16 07:54:55;;;;;;;3.13;1.80;;;21.10;95.70;;;;;;5073465;28;20149;-75
2022/07/16 07:57:21;;;;;;;2.58;1.85;;;20.90;96.20;;;;;;5066342;28;21604;-75
2022/07/16 07:59:46;;;;;;;3.08;2.03;;;20.80;96.60;;;;;;5058281;28;20041;-75
2022/07/16 08:02:12;;;;;;;5.63;2.10;;;20.80;96.80;;;;;;5058082;28;20280;-75
2022/07/16 08:04:38;;;;;;;4.53;2.13;;;20.80;96.70;;;;;;5060819;28;20111;-74
2022/07/16 08:07:04;;;;;;;4.78;2.78;;;20.70;97.00;;;;;;5065356;28;20146;-74
2022/07/16 08:09:30;;;;;;;6.63;2.63;;;20.60;96.80;;;;;;5064056;28;20039;-75
2022/07/16 08:11:55;;;;;;;4.35;2.50;;;20.50;97.50;;;;;;5065628;28;20033;-75
2022/07/16 08:14:21;;;;;;;3.67;2.50;;;20.60;97.80;;;;;;5058802;28;20032;-75
2022/07/16 08:16:47;;;;;;;5.32;2.92;;;20.80;97.20;;;;;;5054594;28;20032;-75
2022/07/16 08:19:12;;;;;;;5.18;2.83;;;21.20;97.20;;;;;;5062981;28;20039;-74
2022/07/16 08:21:38;;;;;;;5.82;2.97;;;21.40;95.60;;;;;;5057240;28;20020;-74
2022/07/16 08:26:58;;;;;;;5.18;2.65;;;21.30;95.60;;;;;;5032951;28;20057;-75
2022/07/16 08:29:24;;;;;;;5.90;2.80;;;21.10;96.20;;;;;;5052795;28;20063;-75
2022/07/16 08:31:50;;;;;;;5.53;3.38;;;21.00;96.50;;;;;;5065056;28;20119;-74
2022/07/16 08:34:16;;;;;;;6.50;3.70;;;;;;;;;;5051033;28;20047;-73
2022/07/16 08:36:42;;;;;;;6.68;3.72;;;;;;;;;;5056215;28;20051;-73
2022/07/16 08:39:08;;;;;;;6.43;3.97;;;;;;;;;;5051455;28;20033;-73
2022/07/16 08:41:36;;;;;;;6.57;4.32;;;;;;;;;;5067949;28;20072;-73
2022/07/16 08:44:02;;;;;;;6.07;4.32;;;;;;;;;;5054638;28;20033;-73
2022/07/16 08:46:29;;;;;;;6.47;4.50;;;20.90;96.80;;;;;;5059312;28;20103;-74
2022/07/16 08:48:54;;;;;;;6.93;4.68;;;21.10;97.30;;;;;;5063097;28;20028;-75
2022/07/16 08:51:35;;;;;;;10.90;4.63;;;21.30;96.80;;;;;;5053117;28;20419;-74
2022/07/16 08:54:12;;;;;;;7.53;5.25;;;21.40;96.00;;;;;;5061866;28;20115;-75
2022/07/16 08:56:38;;;;;;;8.25;5.03;;;21.30;95.90;;;;;;5062936;28;20024;-75
2022/07/16 08:59:05;;;;;;;6.07;5.45;;;21.00;96.60;;;;;;5052153;28;21420;-74
2022/07/16 09:01:32;;;;;;;6.50;5.20;;;21.00;97.00;;;;;;5062067;28;20023;-75
2022/07/16 09:03:59;;;;;;;7.70;5.07;;;21.00;96.80;;;;;;5056864;28;20012;-77
2022/07/16 09:06:25;;;;;;;8.77;5.00;;;21.00;96.70;;;;;;5046604;28;20032;-75
2022/07/16 09:08:52;;;;;;;6.65;4.65;;;21.00;96.90;;;;;;5063610;28;20029;-74
2022/07/16 09:11:24;;;;;;;6.15;3.78;;;21.10;97.00;;;;;;5063655;28;20064;-74
2022/07/16 09:14:13;;;;;;;5.03;3.92;;;21.20;95.90;;;;;;5053963;28;20089;-76
2022/07/16 09:16:50;;;;;;;7.82;3.75;;;21.00;96.40;;;;;;5063935;28;20081;-76
2022/07/16 09:19:16;;;;;;;4.78;2.95;;;21.20;96.80;;;;;;5055585;28;20554;-74
2022/07/16 09:21:58;;;;;;;5.00;3.20;;;21.40;95.90;;;;;;5060336;28;20128;-75
2022/07/16 09:24:40;;;;;;;6.57;3.40;;;21.40;95.70;;;;;;5064228;28;20033;-74
2022/07/16 09:27:07;;;;;;;6.95;3.20;;;21.40;95.20;;;;;;5061820;28;20074;-74
2022/07/16 09:29:34;;;;;;;3.92;2.45;;;21.50;95.20;;;;;;5065275;28;20126;-74
2022/07/16 09:32:00;;;;;;;5.40;2.47;;;21.60;94.20;;;;;;5056623;28;20066;-74
2022/07/16 09:34:25;;;;;;;2.70;1.73;;;21.90;93.60;;;;;;5056648;28;20060;-74
2022/07/16 09:37:01;;;;;;;2.70;1.77;;;22.00;92.50;;;;;;5059078;28;20226;-74
2022/07/16 09:39:29;;;;;;;2.40;1.90;;;22.30;92.20;;;;;;5059362;28;20036;-75
2022/07/16 09:41:55;;;;;;;3.13;1.73;;;22.60;91.30;;;;;;5057171;28;20032;-75
2022/07/16 09:44:24;;;;;;;3.20;2.13;;;22.70;90.50;;;;;;5067803;28;20038;-76
2022/07/16 09:47:05;;;;;;;4.47;1.92;;;22.60;90.60;;;;;;5054002;28;20023;-76
2022/07/16 09:49:33;;;;;;;3.10;1.80;;;22.60;90.40;;;;;;5045768;28;20082;-74
2022/07/16 09:51:59;;;;;;;4.63;2.15;;;22.40;91.00;;;;;;5058648;28;20035;-74
2022/07/16 09:54:30;;;;;;;2.25;1.90;;;22.10;91.70;;;;;;5058772;28;20025;-74
2022/07/16 09:57:07;;;;;;;3.50;2.00;;;22.10;92.40;;;;;;5071391;28;20363;-75
2022/07/16 09:59:33;;;;;;;4.63;2.30;;;22.10;91.90;;;;;;5059050;28;20047;-74
2022/07/16 10:02:01;;;;;;;3.40;2.08;;;22.00;92.10;;;;;;5081299;28;20081;-76
2022/07/16 10:04:28;;;;;;;1.90;1.58;;;21.80;91.80;;;;;;5078947;28;20389;-75
2022/07/16 10:06:53;;;;;;;4.53;1.23;;;21.80;92.60;;;;;;5060845;28;20043;-76
2022/07/16 10:09:19;;;;;;;1.30;0.65;;;21.90;91.80;;;;;;5061475;28;20033;-74
2022/07/16 10:11:45;;;;;;;3.65;1.00;;;21.90;89.50;;;;;;5065818;28;20044;-73
2022/07/16 10:14:11;;;;;;;1.73;0.80;;;21.90;90.30;;;;;;5069128;28;20235;-74
2022/07/16 10:16:42;;;;;;;2.30;1.00;;;21.80;90.20;;;;;;5067245;28;20096;-74
2022/07/16 10:19:08;;;;;;;3.28;1.10;;;21.70;90.90;;;;;;5059132;28;20024;-74
2022/07/16 10:21:34;;;;;;;2.78;0.80;;;21.90;91.30;;;;;;5066792;28;20068;-74
2022/07/16 10:24:10;;;;;;;1.88;0.70;;;22.00;90.00;;;;;;5063121;28;20060;-74
2022/07/16 10:26:36;;;;;;;2.40;0.70;;;22.10;90.10;;;;;;5074485;28;20020;-74
2022/07/16 10:29:03;;;;;;;1.83;0.80;;;22.30;89.90;;;;;;5056883;28;20093;-74
2022/07/16 10:34:39;;;;;;;1.48;0.82;;;22.70;87.80;;;;;;5076213;28;20614;-74
2022/07/16 10:37:11;;;;;;;2.38;0.70;;;22.80;87.00;;;;;;5058521;28;20135;-74
2022/07/16 10:40:01;;;;;;;4.43;0.87;;;22.80;87.50;;;;;;4714744;28;9999917;-73
2022/07/16 10:42:27;;;;;;;1.02;0.70;;;22.70;86.80;;;;;;5063483;28;20479;-73
2022/07/16 10:44:53;;;;;;;2.97;0.70;;;22.40;88.00;;;;;;5061880;28;20036;-76
2022/07/16 10:47:19;;;;;;;0.95;0.63;;;22.30;88.30;;;;;;5059210;28;20031;-76
2022/07/16 10:49:45;;;;;;;2.67;0.70;;;22.30;88.90;;;;;;5061044;28;20021;-74
2022/07/16 10:52:14;;;;;;;1.00;0.60;;;22.20;87.90;;;;;;5063451;28;20021;-73
2022/07/16 10:54:52;;;;;;;2.28;0.70;;;22.10;87.50;;;;;;5045689;28;20029;-73
2022/07/16 10:57:31;;;;;;;0.93;0.68;;;22.20;88.20;;;;;;5061171;28;20036;-74
2022/07/16 10:59:59;;;;;;;1.45;0.60;;;22.40;87.50;;;;;;5063449;28;20124;-73
2022/07/16 11:02:24;;;;;;;1.65;0.70;;;23.10;83.80;;;;;;5058165;28;20056;-75
2022/07/16 11:04:53;;;;;;;1.45;0.60;;;23.10;83.20;;;;;;5065659;28;20028;-75
2022/07/16 11:07:20;;;;;;;2.08;0.70;;;;;;;;;;5052812;28;20115;-75
2022/07/16 11:09:49;;;;;;;0.90;0.60;;;23.70;80.30;;;;;;5069146;28;20047;-74
2022/07/16 11:12:24;;;;;;;2.13;0.60;;;23.60;78.60;;;;;;5054546;28;20037;-74
2022/07/16 11:14:54;;;;;;;1.98;0.60;;;23.60;77.80;;;;;;5076676;28;20459;-73
2022/07/16 11:17:22;;;;;;;2.47;0.60;;;23.60;77.80;;;;;;5067810;28;20710;-73
2022/07/16 11:19:50;;;;;;;1.20;0.75;;;23.30;76.30;;;;;;5064821;28;20116;-74
2022/07/16 11:22:23;;;;;;;2.45;0.77;;;23.10;78.50;;;;;;5058611;28;20032;-72
2022/07/16 11:24:53;;;;;;;1.67;0.95;;;22.90;77.60;;;;;;5060752;28;20024;-74
2022/07/16 11:27:40;;;;;;;2.42;0.90;;;22.60;78.00;;;;;;5052234;28;20029;-73
2022/07/16 11:30:08;;;;;;;2.45;0.90;;;22.40;78.80;;;;;;5065113;28;20031;-73
2022/07/16 11:32:45;;;;;;;1.85;0.70;;;22.50;78.90;;;;;;5068431;28;20501;-74
2022/07/16 11:35:12;;;;;;;1.83;0.88;;;22.80;76.50;;;;;;5060192;28;20032;-73
2022/07/16 11:38:07;;;;;;;1.70;0.70;;;23.20;74.30;;;;;;5061649;28;20131;-74
2022/07/16 11:40:35;;;;;;;1.90;0.88;;;23.50;72.20;;;;;;5039488;28;20037;-74
2022/07/16 11:43:00;;;;;;;2.00;0.80;;;23.70;73.50;;;;;;5057169;28;20570;-76
2022/07/16 11:45:27;;;;;;;2.15;0.80;;;23.80;73.40;;;;;;5064717;28;20120;-76
2022/07/16 11:48:09;;;;;;;0.77;0.70;;;23.60;70.70;;;;;;5060089;28;20054;-73
2022/07/16 11:50:35;;;;;;;1.52;0.90;;;23.30;72.00;;;;;;5059705;28;20382;-72
2022/07/16 11:53:01;;;;;;;0.93;0.70;;;23.40;78.10;;;;;;5060535;28;20039;-72
2022/07/16 11:55:26;;;;;;;3.45;0.80;;;23.50;77.80;;;;;;5052154;28;20465;-73
2022/07/16 11:57:52;;;;;;;1.77;0.80;;;23.70;77.30;;;;;;5056365;28;20021;-74
2022/07/16 12:00:18;;;;;;;2.92;0.90;;;23.90;72.40;;;;;;5064405;28;20044;-73
2022/07/16 12:02:45;;;;;;;2.00;0.98;;;24.20;72.40;;;;;;5046133;28;20678;-75
2022/07/16 12:05:10;;;;;;;1.80;0.77;;;24.40;76.70;;;;;;5068877;28;20276;-72
2022/07/16 12:07:36;;;;;;;2.30;0.93;;;24.20;69.20;;;;;;5043976;28;20029;-74
2022/07/16 12:10:06;;;;;;;1.98;1.00;;;23.80;69.20;;;;;;5048016;28;20100;-74
2022/07/16 12:12:34;;;;;;;2.97;0.90;;;23.60;70.00;;;;;;5052213;28;20455;-74
2022/07/16 12:15:01;;;;;;;3.15;0.95;;;23.50;72.20;;;;;;5045361;28;20043;-74
2022/07/16 12:17:33;;;;;;;1.67;0.82;;;23.50;72.00;;;;;;5051066;28;20115;-73
2022/07/16 12:20:14;;;;;;;1.08;0.70;;;23.40;71.40;;;;;;5043747;28;20125;-74
2022/07/16 12:22:47;;;;;;;1.52;0.70;;;23.30;68.90;;;;;;5062794;28;20025;-73
2022/07/16 12:25:26;;;;;;;1.23;0.70;;;23.30;67.80;;;;;;5058930;28;20021;-72
2022/07/16 12:28:00;;;;;;;1.45;0.70;;;23.10;67.50;;;;;;5045546;28;20102;-72
2022/07/16 12:30:48;;;;;;;5.78;0.90;;;22.90;69.40;;;;;;5059706;28;20032;-73
2022/07/16 12:33:21;;;;;;;3.22;0.90;;;23.10;70.70;;;;;;5052734;28;20537;-74
2022/07/16 12:35:50;;;;;;;2.78;0.95;;;23.40;67.90;;;;;;5064204;28;20310;-72
2022/07/16 12:38:38;;;;;;;3.03;0.75;;;23.70;63.00;;;;;;5064084;28;20594;-74
2022/07/16 12:41:11;;;;;;;4.82;0.90;;;23.90;62.20;;;;;;5055615;28;20056;-75
2022/07/16 12:43:37;;;;;;;1.35;0.80;;;24.10;61.30;;;;;;5053743;28;20112;-78
2022/07/16 12:46:03;;;;;;;3.28;0.70;;;24.40;62.50;;;;;;5051131;28;20453;-77
2022/07/16 12:48:30;;;;;;;2.10;0.80;;;24.50;60.10;;;;;;5049359;28;20518;-75
2022/07/16 12:50:56;;;;;;;2.03;0.80;;;24.80;62.50;;;;;;5043851;28;20032;-76
2022/07/16 12:53:23;;;;;;;33.83;1.88;;;;;;;;;;5045144;28;20037;-74
2022/07/16 12:58:48;;;;;;;3.28;0.90;;;24.10;59.80;;;;;;5068900;28;20036;-75
2022/07/16 13:01:19;;;;;;;11.07;1.00;;;24.10;60.20;;;;;;4350576;28;10000737;-74